KQA409 HKMO-HKJK
Flight info
| Callsign | KQA409 |
|---|---|
| Flight time | 0h 42m |
| Altitude | 28000 |
| Route | EVIDI2A UTIKU UQ315 UTEPI UTEPI1A |
| Aircraft | B738/M-SDE2E3FGHIRWXY/LB1 |
Departure
| Time | 2026-04-20 18:46 |
|---|---|
| Airport | Moi International Airport (HKMO) |
Arrival
| Time | 2026-04-20 19:29 |
|---|---|
| Airport | Jomo Kenyatta International Airport (HKJK) |
| Time | Latitude | Longitude | Altitude | Speed | Heading |
|---|---|---|---|---|---|
| 2026-04-20 18:32 | -4.02934 | 39.60027 | 210 ft | 0 kts | 209° |
| 2026-04-20 18:42 | -4.02941 | 39.60022 | 211 ft | 2 kts | 209° |
| 2026-04-20 18:42 | -4.02967 | 39.60006 | 208 ft | 6 kts | 227° |
| 2026-04-20 18:42 | -4.02967 | 39.59952 | 204 ft | 10 kts | 275° |
| 2026-04-20 18:42 | -4.03015 | 39.59891 | 208 ft | 14 kts | 209° |
| 2026-04-20 18:43 | -4.03107 | 39.59840 | 206 ft | 12 kts | 210° |
| 2026-04-20 18:43 | -4.03194 | 39.59790 | 205 ft | 16 kts | 208° |
| 2026-04-20 18:43 | -4.03297 | 39.59734 | 213 ft | 18 kts | 209° |
| 2026-04-20 18:43 | -4.03401 | 39.59676 | 204 ft | 17 kts | 209° |
| 2026-04-20 18:44 | -4.03513 | 39.59613 | 204 ft | 20 kts | 209° |
| 2026-04-20 18:44 | -4.03644 | 39.59539 | 204 ft | 23 kts | 209° |
| 2026-04-20 18:44 | -4.03779 | 39.59463 | 204 ft | 22 kts | 209° |
| 2026-04-20 18:44 | -4.03910 | 39.59387 | 204 ft | 19 kts | 218° |
| 2026-04-20 18:45 | -4.03965 | 39.59308 | 204 ft | 14 kts | 253° |
| 2026-04-20 18:45 | -4.03953 | 39.59215 | 211 ft | 14 kts | 304° |
| 2026-04-20 18:45 | -4.03870 | 39.59216 | 208 ft | 13 kts | 28° |
| 2026-04-20 18:45 | -4.03703 | 39.59309 | 206 ft | 59 kts | 29° |
| 2026-04-20 18:46 | -4.03124 | 39.59632 | 214 ft | 129 kts | 29° |
| 2026-04-20 18:46 | -4.02187 | 39.60154 | 285 ft | 177 kts | 29° |
| 2026-04-20 18:46 | -4.01117 | 39.60754 | 1077 ft | 170 kts | 30° |
| 2026-04-20 18:46 | -3.99983 | 39.61227 | 1677 ft | 185 kts | 4° |
| 2026-04-20 18:47 | -3.98745 | 39.60867 | 2158 ft | 199 kts | 324° |
| 2026-04-20 18:47 | -3.97936 | 39.60296 | 2348 ft | 219 kts | 322° |
| 2026-04-20 18:47 | -3.96626 | 39.59407 | 2558 ft | 243 kts | 326° |
| 2026-04-20 18:47 | -3.94605 | 39.58215 | 3048 ft | 258 kts | 329° |
| 2026-04-20 18:48 | -3.93570 | 39.57624 | 3374 ft | 261 kts | 330° |
| 2026-04-20 18:48 | -3.91457 | 39.56423 | 4142 ft | 262 kts | 330° |
| 2026-04-20 18:48 | -3.90399 | 39.55821 | 4482 ft | 264 kts | 330° |
| 2026-04-20 18:48 | -3.88804 | 39.54912 | 5116 ft | 264 kts | 330° |
| 2026-04-20 18:49 | -3.87202 | 39.53998 | 5714 ft | 266 kts | 330° |
| 2026-04-20 18:49 | -3.85589 | 39.53076 | 6334 ft | 269 kts | 330° |
| 2026-04-20 18:49 | -3.83924 | 39.52124 | 6705 ft | 286 kts | 330° |
| 2026-04-20 18:49 | -3.82162 | 39.51115 | 7281 ft | 294 kts | 331° |
| 2026-04-20 18:50 | -3.80378 | 39.50083 | 7998 ft | 297 kts | 328° |
| 2026-04-20 18:50 | -3.78774 | 39.48745 | 8709 ft | 302 kts | 308° |
| 2026-04-20 18:50 | -3.77710 | 39.46962 | 9421 ft | 305 kts | 295° |
| 2026-04-20 18:50 | -3.76848 | 39.45000 | 10074 ft | 310 kts | 292° |
| 2026-04-20 18:51 | -3.76007 | 39.42950 | 10347 ft | 330 kts | 292° |
| 2026-04-20 18:51 | -3.75091 | 39.40759 | 10576 ft | 348 kts | 293° |
| 2026-04-20 18:51 | -3.74116 | 39.38510 | 11035 ft | 358 kts | 294° |
| 2026-04-20 18:51 | -3.73088 | 39.36217 | 11637 ft | 361 kts | 294° |
| 2026-04-20 18:52 | -3.72036 | 39.33922 | 12323 ft | 363 kts | 295° |
| 2026-04-20 18:52 | -3.70965 | 39.31620 | 13016 ft | 365 kts | 295° |
| 2026-04-20 18:52 | -3.69891 | 39.29330 | 13662 ft | 369 kts | 295° |
| 2026-04-20 18:52 | -3.68778 | 39.26964 | 14259 ft | 373 kts | 295° |
| 2026-04-20 18:53 | -3.67663 | 39.24598 | 14864 ft | 376 kts | 295° |
| 2026-04-20 18:53 | -3.66546 | 39.22227 | 15476 ft | 379 kts | 295° |
| 2026-04-20 18:53 | -3.65431 | 39.19859 | 16078 ft | 383 kts | 295° |
| 2026-04-20 18:53 | -3.64286 | 39.17427 | 16664 ft | 387 kts | 295° |
| 2026-04-20 18:54 | -3.63136 | 39.14985 | 17249 ft | 390 kts | 296° |
| 2026-04-20 18:54 | -3.61972 | 39.12514 | 17836 ft | 394 kts | 296° |
| 2026-04-20 18:54 | -3.60808 | 39.10041 | 18373 ft | 397 kts | 296° |
| 2026-04-20 18:54 | -3.59620 | 39.07516 | 18886 ft | 400 kts | 296° |
| 2026-04-20 18:55 | -3.58429 | 39.04988 | 19403 ft | 402 kts | 296° |
| 2026-04-20 18:55 | -3.57237 | 39.02455 | 19897 ft | 405 kts | 296° |
| 2026-04-20 18:55 | -3.56027 | 38.99887 | 20386 ft | 407 kts | 296° |
| 2026-04-20 18:55 | -3.54815 | 38.97312 | 20864 ft | 410 kts | 296° |
| 2026-04-20 18:56 | -3.53592 | 38.94716 | 21329 ft | 413 kts | 296° |
| 2026-04-20 18:56 | -3.52365 | 38.92109 | 21784 ft | 416 kts | 296° |
| 2026-04-20 18:56 | -3.51126 | 38.89478 | 22241 ft | 418 kts | 296° |
| 2026-04-20 18:56 | -3.49885 | 38.86849 | 22694 ft | 421 kts | 296° |
| 2026-04-20 18:57 | -3.48255 | 38.84419 | 23049 ft | 422 kts | 319° |
| 2026-04-20 18:57 | -3.45808 | 38.82813 | 23529 ft | 420 kts | 334° |
| 2026-04-20 18:57 | -3.43221 | 38.81516 | 23892 ft | 422 kts | 334° |
| 2026-04-20 18:57 | -3.40659 | 38.80051 | 24192 ft | 427 kts | 328° |
| 2026-04-20 18:58 | -3.38222 | 38.78285 | 24515 ft | 430 kts | 322° |
| 2026-04-20 18:58 | -3.35970 | 38.76287 | 24870 ft | 433 kts | 317° |
| 2026-04-20 18:58 | -3.33867 | 38.74173 | 25214 ft | 435 kts | 315° |
| 2026-04-20 18:58 | -3.31791 | 38.71977 | 25547 ft | 437 kts | 314° |
| 2026-04-20 18:59 | -3.29724 | 38.69744 | 25867 ft | 439 kts | 314° |
| 2026-04-20 18:59 | -3.27629 | 38.67471 | 26205 ft | 442 kts | 314° |
| 2026-04-20 18:59 | -3.25542 | 38.65211 | 26521 ft | 444 kts | 314° |
| 2026-04-20 18:59 | -3.23436 | 38.62941 | 26840 ft | 446 kts | 314° |
| 2026-04-20 19:00 | -3.21317 | 38.60666 | 27161 ft | 448 kts | 314° |
| 2026-04-20 19:00 | -3.19187 | 38.58386 | 27520 ft | 448 kts | 314° |
| 2026-04-20 19:00 | -3.17056 | 38.56108 | 27865 ft | 450 kts | 314° |
| 2026-04-20 19:00 | -3.14907 | 38.53813 | 28007 ft | 454 kts | 314° |
| 2026-04-20 19:01 | -3.10541 | 38.49152 | 27999 ft | 458 kts | 314° |
| 2026-04-20 19:01 | -3.06235 | 38.44553 | 28014 ft | 456 kts | 314° |
| 2026-04-20 19:02 | -3.01881 | 38.39902 | 28013 ft | 457 kts | 314° |
| 2026-04-20 19:02 | -2.97518 | 38.35241 | 28013 ft | 458 kts | 314° |
| 2026-04-20 19:03 | -2.93153 | 38.30580 | 28018 ft | 459 kts | 314° |
| 2026-04-20 19:03 | -2.88792 | 38.25924 | 28024 ft | 458 kts | 314° |
| 2026-04-20 19:04 | -2.84430 | 38.21267 | 28033 ft | 458 kts | 314° |
| 2026-04-20 19:04 | -2.80106 | 38.16650 | 28037 ft | 457 kts | 314° |
| 2026-04-20 19:05 | -2.75750 | 38.12001 | 28048 ft | 457 kts | 314° |
| 2026-04-20 19:05 | -2.71398 | 38.07356 | 28054 ft | 457 kts | 314° |
| 2026-04-20 19:06 | -2.67039 | 38.02704 | 28056 ft | 457 kts | 314° |
| 2026-04-20 19:06 | -2.62681 | 37.98054 | 28062 ft | 458 kts | 314° |
| 2026-04-20 19:07 | -2.58349 | 37.93433 | 28065 ft | 458 kts | 314° |
| 2026-04-20 19:07 | -2.53956 | 37.88746 | 28065 ft | 459 kts | 314° |
| 2026-04-20 19:08 | -2.47401 | 37.81755 | 28074 ft | 460 kts | 314° |
| 2026-04-20 19:09 | -2.43057 | 37.77122 | 28073 ft | 459 kts | 314° |
| 2026-04-20 19:09 | -2.38695 | 37.72470 | 28067 ft | 454 kts | 314° |
| 2026-04-20 19:09 | -2.36560 | 37.70191 | 28066 ft | 442 kts | 314° |
| 2026-04-20 19:10 | -2.34473 | 37.67965 | 28070 ft | 439 kts | 314° |
| 2026-04-20 19:10 | -2.30283 | 37.63498 | 27942 ft | 442 kts | 314° |
| 2026-04-20 19:10 | -2.28202 | 37.61280 | 27560 ft | 439 kts | 314° |
| 2026-04-20 19:11 | -2.26121 | 37.59062 | 27103 ft | 435 kts | 314° |
| 2026-04-20 19:11 | -2.24059 | 37.56863 | 26661 ft | 431 kts | 314° |
| 2026-04-20 19:11 | -2.22012 | 37.54680 | 26205 ft | 428 kts | 314° |
| 2026-04-20 19:11 | -2.19978 | 37.52512 | 25748 ft | 426 kts | 314° |
| 2026-04-20 19:12 | -2.17958 | 37.50358 | 25276 ft | 424 kts | 314° |
| 2026-04-20 19:12 | -2.15946 | 37.48213 | 24813 ft | 422 kts | 314° |
| 2026-04-20 19:12 | -2.13939 | 37.46074 | 24350 ft | 421 kts | 314° |
| 2026-04-20 19:12 | -2.11941 | 37.43944 | 23893 ft | 419 kts | 314° |
| 2026-04-20 19:13 | -2.09946 | 37.41819 | 23376 ft | 418 kts | 315° |
| 2026-04-20 19:13 | -2.07951 | 37.39704 | 22816 ft | 417 kts | 315° |
| 2026-04-20 19:13 | -2.05961 | 37.37600 | 22349 ft | 414 kts | 315° |
| 2026-04-20 19:13 | -2.04024 | 37.35533 | 21882 ft | 411 kts | 313° |
| 2026-04-20 19:14 | -2.02499 | 37.33096 | 21407 ft | 410 kts | 289° |
| 2026-04-20 19:14 | -2.01739 | 37.30370 | 20966 ft | 407 kts | 284° |
| 2026-04-20 19:14 | -2.01021 | 37.27663 | 20418 ft | 407 kts | 288° |
| 2026-04-20 19:14 | -2.00043 | 37.25013 | 19899 ft | 406 kts | 295° |
| 2026-04-20 19:15 | -1.98819 | 37.22472 | 19377 ft | 406 kts | 298° |
| 2026-04-20 19:15 | -1.97509 | 37.19969 | 18873 ft | 405 kts | 298° |
| 2026-04-20 19:15 | -1.96199 | 37.17484 | 18364 ft | 404 kts | 298° |
| 2026-04-20 19:15 | -1.94917 | 37.14977 | 17770 ft | 402 kts | 297° |
| 2026-04-20 19:16 | -1.93697 | 37.12502 | 17197 ft | 392 kts | 296° |
| 2026-04-20 19:16 | -1.92526 | 37.10068 | 16621 ft | 383 kts | 296° |
| 2026-04-20 19:16 | -1.91402 | 37.07716 | 16073 ft | 376 kts | 296° |
| 2026-04-20 19:16 | -1.90274 | 37.05360 | 15528 ft | 368 kts | 296° |
| 2026-04-20 19:17 | -1.89185 | 37.03095 | 14994 ft | 362 kts | 296° |
| 2026-04-20 19:17 | -1.88102 | 37.00848 | 14468 ft | 356 kts | 296° |
| 2026-04-20 19:17 | -1.87028 | 36.98628 | 13948 ft | 351 kts | 297° |
| 2026-04-20 19:17 | -1.85971 | 36.96445 | 13377 ft | 347 kts | 297° |
| 2026-04-20 19:18 | -1.84925 | 36.94285 | 12798 ft | 343 kts | 297° |
| 2026-04-20 19:18 | -1.83890 | 36.92149 | 12239 ft | 340 kts | 297° |
| 2026-04-20 19:18 | -1.82858 | 36.90018 | 11690 ft | 337 kts | 296° |
| 2026-04-20 19:18 | -1.81840 | 36.87916 | 11152 ft | 335 kts | 297° |
| 2026-04-20 19:19 | -1.80834 | 36.85837 | 10618 ft | 332 kts | 297° |
| 2026-04-20 19:19 | -1.79827 | 36.83757 | 10313 ft | 327 kts | 297° |
| 2026-04-20 19:19 | -1.78851 | 36.81756 | 10208 ft | 320 kts | 299° |
| 2026-04-20 19:19 | -1.77528 | 36.80058 | 10129 ft | 303 kts | 326° |
| 2026-04-20 19:20 | -1.75669 | 36.79132 | 9667 ft | 300 kts | 349° |
| 2026-04-20 19:20 | -1.73607 | 36.78887 | 9190 ft | 298 kts | 7° |
| 2026-04-20 19:20 | -1.71556 | 36.79189 | 8712 ft | 299 kts | 14° |
| 2026-04-20 19:20 | -1.69511 | 36.79608 | 8248 ft | 302 kts | 14° |
| 2026-04-20 19:21 | -1.67400 | 36.79798 | 7748 ft | 311 kts | 358° |
| 2026-04-20 19:21 | -1.65240 | 36.79480 | 7321 ft | 314 kts | 353° |
| 2026-04-20 19:21 | -1.63225 | 36.79182 | 7089 ft | 309 kts | 356° |
| 2026-04-20 19:21 | -1.61129 | 36.78965 | 7017 ft | 296 kts | 358° |
| 2026-04-20 19:22 | -1.59121 | 36.78810 | 7015 ft | 283 kts | 359° |
| 2026-04-20 19:22 | -1.57196 | 36.78682 | 7009 ft | 271 kts | 359° |
| 2026-04-20 19:22 | -1.55352 | 36.78559 | 7006 ft | 259 kts | 359° |
| 2026-04-20 19:22 | -1.53602 | 36.78433 | 7012 ft | 247 kts | 360° |
| 2026-04-20 19:23 | -1.51927 | 36.78298 | 7019 ft | 237 kts | 359° |
| 2026-04-20 19:23 | -1.50295 | 36.78162 | 7067 ft | 234 kts | 359° |
| 2026-04-20 19:23 | -1.48710 | 36.78032 | 7057 ft | 225 kts | 360° |
| 2026-04-20 19:23 | -1.47223 | 36.77890 | 7031 ft | 204 kts | 359° |
| 2026-04-20 19:24 | -1.45894 | 36.77866 | 7014 ft | 179 kts | 21° |
| 2026-04-20 19:24 | -1.44879 | 36.78519 | 7083 ft | 177 kts | 45° |
| 2026-04-20 19:24 | -1.43864 | 36.79238 | 7073 ft | 177 kts | 30° |
| 2026-04-20 19:24 | -1.42751 | 36.79721 | 7054 ft | 172 kts | 28° |
| 2026-04-20 19:25 | -1.41699 | 36.80226 | 7052 ft | 166 kts | 35° |
| 2026-04-20 19:25 | -1.40756 | 36.80836 | 7065 ft | 156 kts | 43° |
| 2026-04-20 19:25 | -1.40084 | 36.81678 | 7095 ft | 157 kts | 60° |
| 2026-04-20 19:25 | -1.39450 | 36.82577 | 7081 ft | 159 kts | 52° |
| 2026-04-20 19:26 | -1.38744 | 36.83436 | 7073 ft | 160 kts | 54° |
| 2026-04-20 19:26 | -1.38078 | 36.84317 | 7072 ft | 158 kts | 55° |
| 2026-04-20 19:26 | -1.37419 | 36.85219 | 6939 ft | 165 kts | 56° |
| 2026-04-20 19:26 | -1.36762 | 36.86122 | 6777 ft | 159 kts | 57° |
| 2026-04-20 19:27 | -1.36126 | 36.86999 | 6566 ft | 152 kts | 56° |
| 2026-04-20 19:27 | -1.35518 | 36.87836 | 6389 ft | 142 kts | 56° |
| 2026-04-20 19:27 | -1.34950 | 36.88626 | 6245 ft | 139 kts | 57° |
| 2026-04-20 19:27 | -1.34405 | 36.89417 | 6000 ft | 137 kts | 55° |
| 2026-04-20 19:28 | -1.33840 | 36.90174 | 5747 ft | 137 kts | 53° |
| 2026-04-20 19:28 | -1.33257 | 36.90938 | 5538 ft | 137 kts | 54° |
| 2026-04-20 19:28 | -1.32714 | 36.91700 | 5358 ft | 135 kts | 54° |
| 2026-04-20 19:28 | -1.32207 | 36.92399 | 5322 ft | 109 kts | 54° |
| 2026-04-20 19:29 | -1.31869 | 36.92852 | 5310 ft | 50 kts | 54° |
| 2026-04-20 19:29 | -1.31754 | 36.93011 | 5309 ft | 21 kts | 54° |
| 2026-04-20 19:29 | -1.31668 | 36.93130 | 5306 ft | 21 kts | 54° |
| 2026-04-20 19:29 | -1.31574 | 36.93258 | 5305 ft | 21 kts | 61° |
| 2026-04-20 19:30 | -1.31628 | 36.93375 | 5300 ft | 20 kts | 142° |
| 2026-04-20 19:30 | -1.31739 | 36.93453 | 5306 ft | 14 kts | 143° |
| 2026-04-20 19:30 | -1.31798 | 36.93477 | 5306 ft | 9 kts | 186° |
| 2026-04-20 19:30 | -1.31839 | 36.93463 | 5307 ft | 10 kts | 229° |
| 2026-04-20 19:31 | -1.31894 | 36.93377 | 5305 ft | 11 kts | 238° |
| 2026-04-20 19:31 | -1.31941 | 36.93313 | 5313 ft | 11 kts | 233° |
| 2026-04-20 19:31 | -1.31988 | 36.93251 | 5314 ft | 11 kts | 233° |
| 2026-04-20 19:31 | -1.32035 | 36.93183 | 5311 ft | 13 kts | 234° |
| 2026-04-20 19:32 | -1.32090 | 36.93111 | 5314 ft | 13 kts | 233° |
| 2026-04-20 19:32 | -1.32144 | 36.93036 | 5312 ft | 13 kts | 235° |
| 2026-04-20 19:32 | -1.32196 | 36.92963 | 5318 ft | 13 kts | 233° |
| 2026-04-20 19:32 | -1.32233 | 36.92913 | 5318 ft | 14 kts | 233° |
| 2026-04-20 19:33 | -1.32320 | 36.92797 | 5322 ft | 16 kts | 234° |
| 2026-04-20 19:33 | -1.32381 | 36.92710 | 5319 ft | 15 kts | 234° |
| 2026-04-20 19:33 | -1.32443 | 36.92626 | 5323 ft | 15 kts | 233° |
| 2026-04-20 19:33 | -1.32501 | 36.92547 | 5323 ft | 14 kts | 233° |
| 2026-04-20 19:34 | -1.32539 | 36.92496 | 5319 ft | 14 kts | 233° |
| 2026-04-20 19:34 | -1.32594 | 36.92422 | 5322 ft | 13 kts | 233° |
| 2026-04-20 19:34 | -1.32680 | 36.92354 | 5321 ft | 13 kts | 169° |
| 2026-04-20 19:34 | -1.32731 | 36.92382 | 5321 ft | 12 kts | 153° |
| 2026-04-20 19:35 | -1.32837 | 36.92403 | 5316 ft | 11 kts | 156° |
| 2026-04-20 19:35 | -1.32869 | 36.92417 | 5318 ft | 0 kts | 155° |
| 2026-04-20 19:35 | -1.32878 | 36.92422 | 5321 ft | 2 kts | 155° |
| 2026-04-20 19:35 | -1.32881 | 36.92423 | 5322 ft | 0 kts | 155° |